createdAt,value
2022-07-26T00:00:58.646Z,42.00
2022-07-26T00:03:27.893Z,41.92
2022-07-26T00:05:55.823Z,42.27
2022-07-26T00:08:23.814Z,42.59
2022-07-26T00:10:52.407Z,42.61
2022-07-26T00:13:21.915Z,42.88
2022-07-26T00:15:50.633Z,42.42
2022-07-26T00:18:18.910Z,42.73
2022-07-26T00:20:48.942Z,42.74
2022-07-26T00:23:17.021Z,42.96
2022-07-26T00:25:44.970Z,43.14
2022-07-26T00:28:12.973Z,43.14
2022-07-26T00:30:40.979Z,43.31
2022-07-26T00:33:09.017Z,43.07
2022-07-26T00:35:37.148Z,42.80
2022-07-26T00:38:06.553Z,42.87
2022-07-26T00:40:35.925Z,42.57
2022-07-26T00:43:03.957Z,42.30
2022-07-26T00:45:32.975Z,43.01
2022-07-26T00:48:00.929Z,42.98
2022-07-26T00:50:28.862Z,43.41
2022-07-26T00:52:56.996Z,43.15
2022-07-26T00:55:26.324Z,42.51
2022-07-26T00:57:54.449Z,42.52
2022-07-26T01:00:27.796Z,42.81
2022-07-26T01:02:55.819Z,43.15
2022-07-26T01:05:24.350Z,42.96
2022-07-26T01:07:53.065Z,43.19
2022-07-26T01:10:21.924Z,43.45
2022-07-26T01:12:51.362Z,43.61
2022-07-26T01:15:19.422Z,43.66
2022-07-26T01:17:47.518Z,43.36
2022-07-26T01:20:15.983Z,43.26
2022-07-26T01:22:45.314Z,43.24
2022-07-26T01:25:13.374Z,43.02
2022-07-26T01:27:41.403Z,43.47
2022-07-26T01:30:13.102Z,43.51
2022-07-26T01:32:41.656Z,43.32
2022-07-26T01:35:10.737Z,43.39
2022-07-26T01:37:38.785Z,43.23
2022-07-26T01:40:11.327Z,43.06
2022-07-26T01:42:40.923Z,43.22
2022-07-26T01:45:09.996Z,43.43
2022-07-26T01:47:38.016Z,43.58
2022-07-26T01:50:08.558Z,43.77
2022-07-26T01:52:37.326Z,43.82
2022-07-26T01:55:05.896Z,44.06
2022-07-26T01:57:35.274Z,43.68
2022-07-26T02:00:05.227Z,44.09
2022-07-26T02:02:35.315Z,44.31
2022-07-26T02:05:03.822Z,44.25
2022-07-26T02:07:34.116Z,44.34
2022-07-26T02:10:02.105Z,44.14
2022-07-26T02:12:30.062Z,43.98
2022-07-26T02:15:00.586Z,44.02
2022-07-26T02:17:28.573Z,43.99
2022-07-26T02:19:56.677Z,44.28
2022-07-26T02:22:24.714Z,44.30
2022-07-26T02:24:52.586Z,44.22
2022-07-26T02:27:20.833Z,44.42
2022-07-26T02:29:48.733Z,44.54
2022-07-26T02:32:18.012Z,44.56
2022-07-26T02:34:45.905Z,44.98
2022-07-26T02:37:13.821Z,45.01
2022-07-26T02:39:41.831Z,45.16
2022-07-26T02:42:09.825Z,44.86
2022-07-26T02:44:37.792Z,45.25
2022-07-26T02:47:05.929Z,45.36
2022-07-26T02:49:35.528Z,45.29
2022-07-26T02:52:06.634Z,45.25
2022-07-26T02:54:34.555Z,45.21
2022-07-26T02:57:02.450Z,45.25
2022-07-26T02:59:30.402Z,45.22
2022-07-26T03:01:58.533Z,44.82
2022-07-26T03:04:26.614Z,45.03
2022-07-26T03:06:55.970Z,44.85
2022-07-26T03:09:24.039Z,45.12
2022-07-26T03:11:52.089Z,45.23
2022-07-26T03:14:20.042Z,45.10
2022-07-26T03:16:48.383Z,45.04
2022-07-26T03:19:16.359Z,45.43
2022-07-26T03:21:44.321Z,45.81
2022-07-26T03:24:13.604Z,46.30
2022-07-26T03:26:41.485Z,46.69
2022-07-26T03:29:09.427Z,46.84
2022-07-26T03:31:37.342Z,47.11
2022-07-26T03:34:05.718Z,46.93
2022-07-26T03:36:33.780Z,46.74
2022-07-26T03:39:01.746Z,46.11
2022-07-26T03:41:31.630Z,46.43
2022-07-26T03:43:59.569Z,46.06
2022-07-26T03:46:27.796Z,46.42
2022-07-26T03:48:56.066Z,46.53
2022-07-26T03:51:24.329Z,46.40
2022-07-26T03:53:52.358Z,45.95
2022-07-26T03:56:35.262Z,45.89
2022-07-26T03:59:06.388Z,46.19
2022-07-26T04:01:35.305Z,45.87
2022-07-26T04:04:03.461Z,46.06
2022-07-26T04:06:31.425Z,45.90
2022-07-26T04:08:59.330Z,45.47
2022-07-26T04:11:28.593Z,45.09
2022-07-26T04:13:57.305Z,44.69
2022-07-26T04:16:27.127Z,44.73
2022-07-26T04:18:55.509Z,44.60
2022-07-26T04:21:23.704Z,44.25
2022-07-26T04:23:52.147Z,44.32
2022-07-26T04:26:20.417Z,44.18
2022-07-26T04:28:48.894Z,43.91
2022-07-26T04:31:16.878Z,43.80
2022-07-26T04:33:46.238Z,43.56
2022-07-26T04:36:14.220Z,43.89
2022-07-26T04:38:42.756Z,43.56
2022-07-26T04:41:10.754Z,43.99
2022-07-26T04:43:38.677Z,43.93
2022-07-26T04:46:07.286Z,43.54
2022-07-26T04:48:35.532Z,43.38
2022-07-26T04:51:05.031Z,43.65
2022-07-26T04:53:33.068Z,43.41
2022-07-26T04:56:00.986Z,43.89
2022-07-26T04:58:28.995Z,44.44
2022-07-26T05:01:09.454Z,44.08
2022-07-26T05:03:38.166Z,44.01
2022-07-26T05:06:08.029Z,43.75
2022-07-26T05:08:36.106Z,43.83
2022-07-26T05:11:04.584Z,45.36
2022-07-26T05:13:32.934Z,45.63
2022-07-26T05:16:01.911Z,45.71
2022-07-26T05:18:45.973Z,45.71
2022-07-26T05:21:19.621Z,45.83
2022-07-26T05:23:47.646Z,45.43
2022-07-26T05:26:15.766Z,45.77
2022-07-26T05:28:43.662Z,46.88
2022-07-26T05:31:11.738Z,46.94
2022-07-26T05:33:39.794Z,47.11
2022-07-26T05:36:08.028Z,48.08
2022-07-26T05:38:37.626Z,48.38
2022-07-26T05:41:06.085Z,50.04
2022-07-26T05:43:40.924Z,50.73
2022-07-26T05:46:10.799Z,50.93
2022-07-26T05:48:39.026Z,51.76
2022-07-26T05:51:07.244Z,51.78
2022-07-26T05:53:35.246Z,51.89
2022-07-26T05:56:04.765Z,51.56
2022-07-26T05:58:32.877Z,51.57
2022-07-26T06:01:00.856Z,51.65
2022-07-26T06:03:30.078Z,50.95
2022-07-26T06:05:59.671Z,50.98
2022-07-26T06:08:27.977Z,50.86
2022-07-26T06:10:56.011Z,51.16
2022-07-26T06:13:25.515Z,51.20
2022-07-26T06:15:53.952Z,51.51
2022-07-26T06:18:22.011Z,51.61
2022-07-26T06:20:50.221Z,51.12
2022-07-26T06:23:18.209Z,51.24
2022-07-26T06:26:02.423Z,50.51
2022-07-26T06:28:32.656Z,50.42
2022-07-26T06:31:00.710Z,49.72
2022-07-26T06:33:28.665Z,49.65
2022-07-26T06:35:56.659Z,49.38
2022-07-26T06:38:24.728Z,48.71
2022-07-26T06:40:52.752Z,48.73
2022-07-26T06:43:20.784Z,48.60
2022-07-26T06:45:50.576Z,48.38
2022-07-26T06:48:18.849Z,48.22
2022-07-26T06:50:46.884Z,48.05
2022-07-26T06:53:14.925Z,48.02
2022-07-26T06:55:43.111Z,48.15
2022-07-26T06:58:11.187Z,47.51
2022-07-26T07:00:39.233Z,47.12
2022-07-26T07:03:08.629Z,47.04
2022-07-26T07:05:36.995Z,46.84
2022-07-26T07:08:07.437Z,46.70
2022-07-26T07:10:35.448Z,46.84
2022-07-26T07:13:04.263Z,46.77
2022-07-26T07:15:32.510Z,46.70
2022-07-26T07:18:00.712Z,46.70
2022-07-26T07:20:30.453Z,46.53
2022-07-26T07:22:58.651Z,46.67
2022-07-26T07:25:30.892Z,46.22
2022-07-26T07:27:59.373Z,46.44
2022-07-26T07:30:28.278Z,46.50
2022-07-26T07:32:57.043Z,46.56
2022-07-26T07:35:31.632Z,46.39
2022-07-26T07:38:02.070Z,46.71
2022-07-26T07:40:30.541Z,47.67
2022-07-26T07:42:59.369Z,48.40
2022-07-26T07:45:27.795Z,48.93
2022-07-26T07:47:56.106Z,49.28
2022-07-26T07:50:27.189Z,49.79
2022-07-26T07:52:59.133Z,50.49
2022-07-26T07:55:41.459Z,50.73
2022-07-26T07:58:12.416Z,51.36
2022-07-26T08:00:42.649Z,53.20
2022-07-26T08:03:10.763Z,54.32
2022-07-26T08:05:40.507Z,55.26
2022-07-26T08:08:09.197Z,55.07
2022-07-26T08:10:43.672Z,55.62
2022-07-26T08:13:21.409Z,56.44
2022-07-26T08:15:50.697Z,56.58
2022-07-26T08:18:19.667Z,56.52
2022-07-26T08:20:54.020Z,56.75
2022-07-26T08:23:22.649Z,57.07
2022-07-26T08:25:57.796Z,56.98
2022-07-26T08:28:46.894Z,57.00
2022-07-26T08:31:15.730Z,56.54
2022-07-26T08:33:46.294Z,57.21
2022-07-26T08:36:16.014Z,58.04
2022-07-26T08:38:44.325Z,58.01
2022-07-26T08:41:13.705Z,57.72
2022-07-26T08:43:43.747Z,57.97
2022-07-26T08:46:27.725Z,57.93
2022-07-26T08:48:57.014Z,57.10
2022-07-26T08:51:26.286Z,56.71
2022-07-26T08:54:02.159Z,56.53
2022-07-26T08:56:35.518Z,56.79
2022-07-26T08:59:07.982Z,56.97
2022-07-26T09:01:36.301Z,56.47
2022-07-26T09:04:31.143Z,57.02
2022-07-26T09:07:03.166Z,56.91
2022-07-26T09:09:32.587Z,57.12
2022-07-26T09:12:15.004Z,56.37
2022-07-26T09:14:42.993Z,57.03
2022-07-26T09:17:10.886Z,56.75
2022-07-26T09:19:38.834Z,56.73
2022-07-26T09:22:12.074Z,55.68
2022-07-26T09:24:42.376Z,55.87
2022-07-26T09:27:18.477Z,55.74
2022-07-26T09:29:48.718Z,55.19
2022-07-26T09:32:19.328Z,55.28
2022-07-26T09:34:53.158Z,55.18
2022-07-26T09:37:35.157Z,55.62
2022-07-26T09:40:06.225Z,55.15
2022-07-26T09:42:35.818Z,55.56
2022-07-26T09:45:15.896Z,56.35
2022-07-26T09:47:43.919Z,56.33
2022-07-26T09:50:14.250Z,56.65
2022-07-26T09:52:57.659Z,56.45
2022-07-26T09:55:26.197Z,56.46
2022-07-26T09:57:55.936Z,55.98
2022-07-26T10:00:25.785Z,55.91
2022-07-26T10:02:54.340Z,56.24
2022-07-26T10:05:22.680Z,57.09
2022-07-26T10:07:51.670Z,57.41
2022-07-26T10:10:24.390Z,57.89
2022-07-26T10:12:55.579Z,57.88
2022-07-26T10:15:38.469Z,58.35
2022-07-26T10:18:08.343Z,58.49
2022-07-26T10:20:42.217Z,58.02
2022-07-26T10:23:49.978Z,57.75
2022-07-26T10:26:45.428Z,57.80
2022-07-26T10:29:29.255Z,57.90
2022-07-26T10:32:17.542Z,57.81
2022-07-26T10:34:46.346Z,57.70
2022-07-26T10:37:27.596Z,58.00
2022-07-26T10:40:19.156Z,57.39
2022-07-26T10:42:47.104Z,56.92
2022-07-26T10:45:23.030Z,56.94
2022-07-26T10:48:22.737Z,56.84
2022-07-26T10:50:53.395Z,56.17
2022-07-26T10:53:23.433Z,55.32
2022-07-26T10:55:52.875Z,54.54
2022-07-26T10:58:21.670Z,53.98
2022-07-26T11:01:00.931Z,52.64
2022-07-26T11:03:38.945Z,52.89
2022-07-26T11:06:14.588Z,51.91
2022-07-26T11:08:47.783Z,51.92
2022-07-26T11:11:29.992Z,52.21
2022-07-26T11:14:07.020Z,52.59
2022-07-26T11:16:40.774Z,52.94
2022-07-26T11:19:17.369Z,52.79
2022-07-26T11:21:46.513Z,53.00
2022-07-26T11:24:14.946Z,52.84
2022-07-26T11:26:44.137Z,53.36
2022-07-26T11:29:17.696Z,52.95
2022-07-26T11:32:00.141Z,52.57
2022-07-26T11:34:35.627Z,51.79
2022-07-26T11:37:05.738Z,51.75
2022-07-26T11:39:36.454Z,52.02
2022-07-26T11:42:06.365Z,52.36
2022-07-26T11:44:34.664Z,52.66
2022-07-26T11:47:12.072Z,53.20
2022-07-26T11:52:31.147Z,53.74
2022-07-26T11:54:59.186Z,54.12
2022-07-26T11:57:30.078Z,54.47
2022-07-26T11:59:59.707Z,54.46
2022-07-26T12:02:30.106Z,55.70
2022-07-26T12:05:14.081Z,56.41
2022-07-26T12:07:54.889Z,55.89
2022-07-26T12:10:23.139Z,56.46
2022-07-26T12:12:51.389Z,56.58
2022-07-26T12:15:19.578Z,56.49
2022-07-26T12:18:01.772Z,55.91
2022-07-26T12:20:29.771Z,56.31
2022-07-26T12:23:04.936Z,56.63
2022-07-26T12:25:33.709Z,57.28
2022-07-26T12:28:01.731Z,57.43
2022-07-26T12:30:36.461Z,57.86
2022-07-26T12:33:05.960Z,57.54
2022-07-26T12:35:35.644Z,57.33
2022-07-26T12:38:04.615Z,57.73
2022-07-26T12:40:41.930Z,58.03
2022-07-26T12:43:10.066Z,58.55
2022-07-26T12:45:38.541Z,58.72
2022-07-26T12:48:11.837Z,57.99
2022-07-26T12:50:40.036Z,58.52
2022-07-26T12:53:12.559Z,58.45
2022-07-26T12:55:40.817Z,59.04
2022-07-26T12:58:09.154Z,59.40
2022-07-26T13:00:37.184Z,59.47
2022-07-26T13:03:05.348Z,58.83
2022-07-26T13:05:34.649Z,58.95
2022-07-26T13:08:02.554Z,59.64
2022-07-26T13:10:33.460Z,59.78
2022-07-26T13:13:02.609Z,59.78
2022-07-26T13:15:36.415Z,58.96
2022-07-26T13:18:08.155Z,59.09
2022-07-26T13:20:39.231Z,59.24
2022-07-26T13:23:09.772Z,59.03
2022-07-26T13:25:40.617Z,58.36
2022-07-26T13:28:09.970Z,57.91
2022-07-26T13:30:42.896Z,57.15
2022-07-26T13:33:11.689Z,56.85
2022-07-26T13:35:42.833Z,56.33
2022-07-26T13:38:11.119Z,56.95
2022-07-26T13:40:39.104Z,57.01
2022-07-26T13:43:07.111Z,56.70
2022-07-26T13:45:35.056Z,57.11
2022-07-26T13:48:03.031Z,56.50
2022-07-26T13:50:30.954Z,55.84
2022-07-26T13:53:00.302Z,56.24
2022-07-26T13:55:28.301Z,56.04
2022-07-26T13:57:57.877Z,55.21
2022-07-26T14:00:27.712Z,55.17
2022-07-26T14:02:58.033Z,55.59
2022-07-26T14:05:27.532Z,55.35
2022-07-26T14:07:56.182Z,54.96
2022-07-26T14:10:25.862Z,55.47
2022-07-26T14:12:54.381Z,55.50
2022-07-26T14:15:23.496Z,55.43
2022-07-26T14:17:52.228Z,55.58
2022-07-26T14:20:20.977Z,55.16
2022-07-26T14:22:53.057Z,55.77
2022-07-26T14:25:21.414Z,55.70
2022-07-26T14:27:51.189Z,56.30
2022-07-26T14:30:19.919Z,56.49
2022-07-26T14:32:48.248Z,55.79
2022-07-26T14:35:17.522Z,56.38
2022-07-26T14:37:46.298Z,57.03
2022-07-26T14:40:16.437Z,56.73
2022-07-26T14:42:45.039Z,56.80
2022-07-26T14:45:15.368Z,56.90
2022-07-26T14:47:43.837Z,57.12
2022-07-26T14:50:13.091Z,57.80
2022-07-26T14:52:42.252Z,57.73
2022-07-26T14:55:10.727Z,57.96
2022-07-26T14:57:40.275Z,57.60
2022-07-26T15:00:10.700Z,57.59
2022-07-26T15:02:41.577Z,58.29
2022-07-26T15:05:10.609Z,58.45
2022-07-26T15:07:39.875Z,58.45
2022-07-26T15:10:09.221Z,58.30
2022-07-26T15:12:37.976Z,58.93
2022-07-26T15:15:07.276Z,59.44
2022-07-26T15:17:35.509Z,59.50
2022-07-26T15:20:06.255Z,59.88
2022-07-26T15:22:34.746Z,59.44
2022-07-26T15:25:02.706Z,58.77
2022-07-26T15:27:30.652Z,59.07
2022-07-26T15:30:04.223Z,58.99
2022-07-26T15:32:35.169Z,58.79
2022-07-26T15:35:08.276Z,58.75
2022-07-26T15:37:44.677Z,58.63
2022-07-26T15:40:13.677Z,58.77
2022-07-26T15:42:44.260Z,58.31
2022-07-26T15:45:14.085Z,58.09
2022-07-26T15:48:05.734Z,57.72
2022-07-26T15:50:31.791Z,57.33
2022-07-26T15:52:59.771Z,57.26
2022-07-26T15:55:27.695Z,57.04
2022-07-26T15:57:55.689Z,56.28
2022-07-26T16:00:23.757Z,55.33
2022-07-26T16:02:52.221Z,54.92
2022-07-26T16:05:20.537Z,54.20
2022-07-26T16:07:49.865Z,53.77
2022-07-26T16:10:18.783Z,53.78
2022-07-26T16:12:46.858Z,54.17
2022-07-26T16:15:14.997Z,54.69
2022-07-26T16:17:42.919Z,55.14
2022-07-26T16:20:11.378Z,55.03
2022-07-26T16:22:41.006Z,54.51
2022-07-26T16:25:13.542Z,54.22
2022-07-26T16:27:43.051Z,53.56
2022-07-26T16:30:12.544Z,53.44
2022-07-26T16:32:40.585Z,52.96
2022-07-26T16:35:09.328Z,52.48
2022-07-26T16:37:37.352Z,51.74
2022-07-26T16:40:06.543Z,51.22
2022-07-26T16:42:35.937Z,50.79
2022-07-26T16:45:04.984Z,50.18
2022-07-26T16:47:32.913Z,48.52
2022-07-26T16:50:00.895Z,48.21
2022-07-26T16:52:28.950Z,48.52
2022-07-26T16:54:56.975Z,47.70
2022-07-26T16:57:24.851Z,47.57
2022-07-26T16:59:54.189Z,48.10
2022-07-26T17:02:22.253Z,47.67
2022-07-26T17:04:50.231Z,47.32
2022-07-26T17:07:26.235Z,47.06
2022-07-26T17:09:55.504Z,46.88
2022-07-26T17:12:24.026Z,46.52
2022-07-26T17:14:52.209Z,45.90
2022-07-26T17:17:21.597Z,45.18
2022-07-26T17:19:49.676Z,45.48
2022-07-26T17:22:18.382Z,45.84
2022-07-26T17:24:46.466Z,46.71
2022-07-26T17:27:14.912Z,47.34
2022-07-26T17:29:45.229Z,46.88
2022-07-26T17:32:13.205Z,47.17
2022-07-26T17:34:42.705Z,47.28
2022-07-26T17:37:12.250Z,47.29
2022-07-26T17:39:51.588Z,47.83
2022-07-26T17:42:21.055Z,48.32
2022-07-26T17:44:49.384Z,48.02
2022-07-26T17:47:18.142Z,48.31
2022-07-26T17:50:19.515Z,48.43
2022-07-26T17:52:49.115Z,48.74
2022-07-26T17:55:18.430Z,49.31
2022-07-26T17:57:47.602Z,49.10
2022-07-26T18:00:16.999Z,50.05
2022-07-26T18:02:44.922Z,50.41
2022-07-26T18:05:15.043Z,50.75
2022-07-26T18:07:43.104Z,51.08
2022-07-26T18:10:11.520Z,50.78
2022-07-26T18:12:39.474Z,50.82
2022-07-26T18:15:08.583Z,50.78
2022-07-26T18:17:37.284Z,50.98
2022-07-26T18:20:07.148Z,51.77
2022-07-26T18:22:36.493Z,52.07
2022-07-26T18:25:05.534Z,52.99
2022-07-26T18:27:34.059Z,53.81
2022-07-26T18:30:02.007Z,54.64
2022-07-26T18:32:29.928Z,54.64
2022-07-26T18:34:57.855Z,54.69
2022-07-26T18:37:25.813Z,54.34
2022-07-26T18:39:57.820Z,54.62
2022-07-26T18:42:26.338Z,55.00
2022-07-26T18:44:54.311Z,54.94
2022-07-26T18:47:22.289Z,54.93
2022-07-26T18:49:50.339Z,55.25
2022-07-26T18:52:28.770Z,55.07
2022-07-26T18:55:06.609Z,55.20
2022-07-26T18:57:34.885Z,54.85
2022-07-26T19:00:02.979Z,54.47
2022-07-26T19:02:31.012Z,54.45
2022-07-26T19:04:59.029Z,54.66
2022-07-26T19:07:27.051Z,54.98
2022-07-26T19:09:58.375Z,54.89
2022-07-26T19:12:29.155Z,54.94
2022-07-26T19:14:59.773Z,54.76
2022-07-26T19:17:30.308Z,55.02
2022-07-26T19:20:00.885Z,54.76
2022-07-26T19:22:30.356Z,54.80
2022-07-26T19:24:58.514Z,54.78
2022-07-26T19:27:28.737Z,54.92
2022-07-26T19:29:57.431Z,54.72
2022-07-26T19:32:29.051Z,54.64
2022-07-26T19:34:59.743Z,54.24
2022-07-26T19:37:27.645Z,54.17
2022-07-26T19:40:00.291Z,53.82
2022-07-26T19:42:31.755Z,53.34
2022-07-26T19:44:59.984Z,53.40
2022-07-26T19:47:29.659Z,53.08
2022-07-26T19:49:58.683Z,53.02
2022-07-26T19:52:26.645Z,52.62
2022-07-26T19:54:54.637Z,52.00
2022-07-26T19:57:22.790Z,52.27
2022-07-26T19:59:52.218Z,52.27
2022-07-26T20:02:20.281Z,52.35
2022-07-26T20:04:50.779Z,52.68
2022-07-26T20:07:19.639Z,52.64
2022-07-26T20:09:48.034Z,52.62
2022-07-26T20:12:17.467Z,52.60
2022-07-26T20:14:45.741Z,52.38
2022-07-26T20:17:15.212Z,52.53
2022-07-26T20:19:43.364Z,52.58
2022-07-26T20:22:11.809Z,52.25
2022-07-26T20:24:39.780Z,52.33
2022-07-26T20:27:08.248Z,52.18
2022-07-26T20:29:36.281Z,52.13
2022-07-26T20:32:04.307Z,52.12
2022-07-26T20:34:33.805Z,52.24
2022-07-26T20:37:01.694Z,52.37
2022-07-26T20:39:29.837Z,51.82
2022-07-26T20:41:58.213Z,51.75
2022-07-26T20:44:28.404Z,51.73
2022-07-26T20:46:56.831Z,51.51
2022-07-26T20:49:24.999Z,51.22
2022-07-26T20:51:54.379Z,51.54
2022-07-26T20:54:22.318Z,51.26
2022-07-26T20:56:50.616Z,51.43
2022-07-26T20:59:18.545Z,51.47
2022-07-26T21:01:46.772Z,51.42
2022-07-26T21:04:14.838Z,51.49
2022-07-26T21:06:42.887Z,51.83
2022-07-26T21:09:12.785Z,51.89
2022-07-26T21:11:40.918Z,52.09
2022-07-26T21:14:08.921Z,52.26
2022-07-26T21:16:37.046Z,52.17
2022-07-26T21:19:05.780Z,52.29
2022-07-26T21:21:36.966Z,52.53
2022-07-26T21:24:06.319Z,52.63
2022-07-26T21:26:35.843Z,52.79
2022-07-26T21:29:04.623Z,52.87
2022-07-26T21:31:32.690Z,53.04
2022-07-26T21:34:00.653Z,53.21
2022-07-26T21:36:28.591Z,53.33
2022-07-26T21:38:56.594Z,53.67
2022-07-26T21:41:24.527Z,54.23
2022-07-26T21:43:53.788Z,54.11
2022-07-26T21:46:21.906Z,54.21
2022-07-26T21:48:49.943Z,54.22
2022-07-26T21:51:18.369Z,54.31
2022-07-26T21:53:46.394Z,54.47
2022-07-26T21:56:14.629Z,54.24
2022-07-26T21:58:42.534Z,54.35
2022-07-26T22:01:12.718Z,54.20
2022-07-26T22:03:42.567Z,54.11
2022-07-26T22:06:11.293Z,54.13
2022-07-26T22:08:39.358Z,54.06
2022-07-26T22:11:07.415Z,54.16
2022-07-26T22:13:35.617Z,54.19
2022-07-26T22:16:03.727Z,54.07
2022-07-26T22:18:33.426Z,54.01
2022-07-26T22:21:01.576Z,54.15
2022-07-26T22:23:30.914Z,54.03
2022-07-26T22:25:59.551Z,53.98
2022-07-26T22:28:27.553Z,53.95
2022-07-26T22:30:55.620Z,54.03
2022-07-26T22:33:24.307Z,53.87
2022-07-26T22:35:53.865Z,53.85
2022-07-26T22:38:21.855Z,53.83
2022-07-26T22:40:49.806Z,53.77
2022-07-26T22:43:17.890Z,53.69
2022-07-26T22:45:45.860Z,53.76
2022-07-26T22:48:13.920Z,54.20
2022-07-26T22:50:41.873Z,54.25
2022-07-26T22:53:11.228Z,54.27
2022-07-26T22:55:39.157Z,54.19
2022-07-26T22:58:07.069Z,54.50
2022-07-26T23:00:35.208Z,54.41
2022-07-26T23:03:03.362Z,54.63
2022-07-26T23:05:45.812Z,54.62
2022-07-26T23:11:04.730Z,54.58
2022-07-26T23:13:32.677Z,54.54
2022-07-26T23:16:01.660Z,54.51
2022-07-26T23:18:31.055Z,54.66
2022-07-26T23:20:59.029Z,54.80
2022-07-26T23:23:29.602Z,54.58
2022-07-26T23:25:59.203Z,54.36
2022-07-26T23:28:35.867Z,54.35
2022-07-26T23:31:10.749Z,54.41
2022-07-26T23:33:51.473Z,54.78
2022-07-26T23:36:26.014Z,54.85
2022-07-26T23:38:56.492Z,54.70
2022-07-26T23:41:25.090Z,54.80
2022-07-26T23:43:54.156Z,55.04
2022-07-26T23:46:22.636Z,55.40
2022-07-26T23:48:51.576Z,55.58
2022-07-26T23:51:20.437Z,55.82
2022-07-26T23:53:48.917Z,55.81
2022-07-26T23:56:18.918Z,56.17
2022-07-26T23:58:46.951Z,56.36
